sensor_id;sensor_type;location;lat;lon;timestamp;pressure;altitude;pressure_sealevel;temperature;humidity
54453;BME280;40363;52.270;10.546;2023-01-09T00:01:25;75848.06;;;-147.06;89.21
54453;BME280;40363;52.270;10.546;2023-01-09T00:03:53;75839.84;;;-147.06;89.10
54453;BME280;40363;52.270;10.546;2023-01-09T00:06:21;75837.78;;;-147.06;89.15
54453;BME280;40363;52.270;10.546;2023-01-09T00:08:47;75839.84;;;-147.06;89.38
54453;BME280;40363;52.270;10.546;2023-01-09T00:11:14;75831.63;;;-147.06;89.39
54453;BME280;40363;52.270;10.546;2023-01-09T00:13:41;75839.84;;;-147.06;89.87
54453;BME280;40363;52.270;10.546;2023-01-09T00:16:08;75831.63;;;-147.06;89.61
54453;BME280;40363;52.270;10.546;2023-01-09T00:18:35;75821.34;;;-147.06;89.60
54453;BME280;40363;52.270;10.546;2023-01-09T00:21:05;75823.41;;;-147.06;89.69
54453;BME280;40363;52.270;10.546;2023-01-09T00:23:33;75835.75;;;-147.06;90.14
54453;BME280;40363;52.270;10.546;2023-01-09T00:26:02;75833.69;;;-147.06;90.30
54453;BME280;40363;52.270;10.546;2023-01-09T00:28:29;75831.63;;;-147.06;90.29
54453;BME280;40363;52.270;10.546;2023-01-09T00:30:56;75831.63;;;-147.06;90.44
54453;BME280;40363;52.270;10.546;2023-01-09T00:33:25;75839.84;;;-147.06;90.77
54453;BME280;40363;52.270;10.546;2023-01-09T00:35:54;75835.75;;;-147.06;90.89
54453;BME280;40363;52.270;10.546;2023-01-09T00:38:20;75823.41;;;-147.06;90.89
54453;BME280;40363;52.270;10.546;2023-01-09T00:40:48;75827.50;;;-147.06;91.33
54453;BME280;40363;52.270;10.546;2023-01-09T00:43:15;75827.50;;;-147.06;91.44
54453;BME280;40363;52.270;10.546;2023-01-09T00:45:42;75823.41;;;-147.06;91.65
54453;BME280;40363;52.270;10.546;2023-01-09T00:48:11;75825.47;;;-147.06;91.75
54453;BME280;40363;52.270;10.546;2023-01-09T00:50:39;75833.69;;;-147.06;92.18
54453;BME280;40363;52.270;10.546;2023-01-09T00:53:18;75833.69;;;-147.06;92.23
54453;BME280;40363;52.270;10.546;2023-01-09T00:55:49;75823.41;;;-147.06;92.49
54453;BME280;40363;52.270;10.546;2023-01-09T00:58:16;75819.28;;;-147.06;92.77
54453;BME280;40363;52.270;10.546;2023-01-09T01:00:43;75804.91;;;-147.06;92.70
54453;BME280;40363;52.270;10.546;2023-01-09T01:03:09;75806.97;;;-147.06;92.94
54453;BME280;40363;52.270;10.546;2023-01-09T01:05:36;75806.97;;;-147.06;93.47
54453;BME280;40363;52.270;10.546;2023-01-09T01:08:20;75788.47;;;-147.06;93.01
54453;BME280;40363;52.270;10.546;2023-01-09T01:10:48;75776.13;;;-147.06;92.73
54453;BME280;40363;52.270;10.546;2023-01-09T01:13:15;75769.97;;;-147.06;92.32
54453;BME280;40363;52.270;10.546;2023-01-09T01:15:44;75778.19;;;-147.06;92.83
54453;BME280;40363;52.270;10.546;2023-01-09T01:18:11;75765.88;;;-147.06;92.66
54453;BME280;40363;52.270;10.546;2023-01-09T01:20:39;75769.97;;;-147.06;92.75
54453;BME280;40363;52.270;10.546;2023-01-09T01:23:06;75765.88;;;-147.06;92.55
54453;BME280;40363;52.270;10.546;2023-01-09T01:25:35;75769.97;;;-147.06;92.73
54453;BME280;40363;52.270;10.546;2023-01-09T01:28:03;75761.75;;;-147.06;93.02
54453;BME280;40363;52.270;10.546;2023-01-09T01:30:30;75769.97;;;-147.06;92.66
54453;BME280;40363;52.270;10.546;2023-01-09T01:32:57;75761.75;;;-147.06;92.58
54453;BME280;40363;52.270;10.546;2023-01-09T01:35:23;75765.88;;;-147.06;92.39
54453;BME280;40363;52.270;10.546;2023-01-09T01:37:51;75757.66;;;-147.06;92.10
54453;BME280;40363;52.270;10.546;2023-01-09T01:40:18;75755.59;;;-147.06;91.89
54453;BME280;40363;52.270;10.546;2023-01-09T01:42:46;75745.31;;;-147.06;91.95
54453;BME280;40363;52.270;10.546;2023-01-09T01:45:15;75743.25;;;-147.06;91.60
54453;BME280;40363;52.270;10.546;2023-01-09T01:47:49;75745.31;;;-147.06;91.90
54453;BME280;40363;52.270;10.546;2023-01-09T01:50:20;75737.09;;;-147.06;92.42
54453;BME280;40363;52.270;10.546;2023-01-09T01:52:53;75755.59;;;-147.06;93.07
54453;BME280;40363;52.270;10.546;2023-01-09T01:55:22;75757.66;;;-147.06;93.96
54453;BME280;40363;52.270;10.546;2023-01-09T01:57:53;75757.66;;;-147.06;94.36
54453;BME280;40363;52.270;10.546;2023-01-09T02:00:30;75741.22;;;-147.06;94.87
54453;BME280;40363;52.270;10.546;2023-01-09T02:02:58;75761.75;;;-147.06;94.92
54453;BME280;40363;52.270;10.546;2023-01-09T02:05:26;75745.31;;;-147.06;94.70
54453;BME280;40363;52.270;10.546;2023-01-09T02:07:53;75739.16;;;-147.06;94.79
54453;BME280;40363;52.270;10.546;2023-01-09T02:10:20;75737.09;;;-147.06;95.22
54453;BME280;40363;52.270;10.546;2023-01-09T02:12:47;75743.25;;;-147.06;95.84
54453;BME280;40363;52.270;10.546;2023-01-09T02:15:15;75728.88;;;-147.06;95.77
54453;BME280;40363;52.270;10.546;2023-01-09T02:18:10;75724.75;;;-147.06;96.74
54453;BME280;40363;52.270;10.546;2023-01-09T02:20:49;75724.75;;;-147.06;96.70
54453;BME280;40363;52.270;10.546;2023-01-09T02:23:45;75737.09;;;-147.06;97.34
54453;BME280;40363;52.270;10.546;2023-01-09T02:26:51;75733.00;;;-147.06;97.71
54453;BME280;40363;52.270;10.546;2023-01-09T02:29:39;75741.22;;;-147.06;97.68
54453;BME280;40363;52.270;10.546;2023-01-09T02:32:18;75733.00;;;-147.06;98.27
54453;BME280;40363;52.270;10.546;2023-01-09T02:37:36;75743.25;;;-147.06;98.78
54453;BME280;40363;52.270;10.546;2023-01-09T02:40:08;75737.09;;;-147.06;98.65
54453;BME280;40363;52.270;10.546;2023-01-09T02:42:40;75747.38;;;-147.06;99.37
54453;BME280;40363;52.270;10.546;2023-01-09T02:45:08;75745.31;;;-147.06;99.92
54453;BME280;40363;52.270;10.546;2023-01-09T02:47:39;75733.00;;;-147.06;100.00
54453;BME280;40363;52.270;10.546;2023-01-09T02:50:09;75753.53;;;-147.06;100.00
54453;BME280;40363;52.270;10.546;2023-01-09T02:55:39;75755.59;;;-147.06;100.00
54453;BME280;40363;52.270;10.546;2023-01-09T02:58:16;75755.59;;;-147.06;100.00
54453;BME280;40363;52.270;10.546;2023-01-09T03:00:57;75747.38;;;-147.06;100.00
54453;BME280;40363;52.270;10.546;2023-01-09T03:03:34;75745.31;;;-147.06;100.00
54453;BME280;40363;52.270;10.546;2023-01-09T03:06:06;75761.75;;;-147.06;100.00
54453;BME280;40363;52.270;10.546;2023-01-09T03:08:37;75749.44;;;-147.06;100.00
54453;BME280;40363;52.270;10.546;2023-01-09T03:11:05;75753.53;;;-147.06;100.00
54453;BME280;40363;52.270;10.546;2023-01-09T03:13:36;75755.59;;;-147.06;100.00
54453;BME280;40363;52.270;10.546;2023-01-09T03:16:06;75747.38;;;-147.06;100.00
54453;BME280;40363;52.270;10.546;2023-01-09T03:18:37;75749.44;;;-147.06;100.00
54453;BME280;40363;52.270;10.546;2023-01-09T03:21:05;75741.22;;;-147.06;100.00
54453;BME280;40363;52.270;10.546;2023-01-09T03:23:50;75747.38;;;-147.06;100.00
54453;BME280;40363;52.270;10.546;2023-01-09T03:26:18;75753.53;;;-147.06;100.00
54453;BME280;40363;52.270;10.546;2023-01-09T03:28:45;75753.53;;;-147.06;100.00
54453;BME280;40363;52.270;10.546;2023-01-09T03:31:12;75745.31;;;-147.06;100.00
54453;BME280;40363;52.270;10.546;2023-01-09T03:33:41;75743.25;;;-147.06;100.00
54453;BME280;40363;52.270;10.546;2023-01-09T03:36:09;75745.31;;;-147.06;100.00
54453;BME280;40363;52.270;10.546;2023-01-09T03:38:36;75737.09;;;-147.06;100.00
54453;BME280;40363;52.270;10.546;2023-01-09T03:41:04;75741.22;;;-147.06;100.00
54453;BME280;40363;52.270;10.546;2023-01-09T03:43:31;75728.88;;;-147.06;100.00
54453;BME280;40363;52.270;10.546;2023-01-09T03:45:58;75730.94;;;-147.06;100.00
54453;BME280;40363;52.270;10.546;2023-01-09T03:48:24;75733.00;;;-147.06;100.00
54453;BME280;40363;52.270;10.546;2023-01-09T03:50:53;75728.88;;;-147.06;100.00
54453;BME280;40363;52.270;10.546;2023-01-09T03:53:22;75733.00;;;-147.06;100.00
54453;BME280;40363;52.270;10.546;2023-01-09T03:55:51;75730.94;;;-147.06;100.00
54453;BME280;40363;52.270;10.546;2023-01-09T03:58:19;75716.53;;;-147.06;100.00
54453;BME280;40363;52.270;10.546;2023-01-09T04:00:46;75712.44;;;-147.06;100.00
54453;BME280;40363;52.270;10.546;2023-01-09T04:03:15;75708.31;;;-147.06;100.00
54453;BME280;40363;52.270;10.546;2023-01-09T04:05:43;75706.28;;;-147.06;100.00
54453;BME280;40363;52.270;10.546;2023-01-09T04:08:12;75712.44;;;-147.06;100.00
54453;BME280;40363;52.270;10.546;2023-01-09T04:10:39;75712.44;;;-147.06;100.00
54453;BME280;40363;52.270;10.546;2023-01-09T04:13:05;75710.38;;;-147.06;100.00
54453;BME280;40363;52.270;10.546;2023-01-09T04:15:32;75720.66;;;-147.06;100.00
54453;BME280;40363;52.270;10.546;2023-01-09T04:17:59;75708.31;;;-147.06;100.00
54453;BME280;40363;52.270;10.546;2023-01-09T04:20:26;75698.06;;;-147.06;100.00
54453;BME280;40363;52.270;10.546;2023-01-09T04:22:53;75704.22;;;-147.06;100.00
54453;BME280;40363;52.270;10.546;2023-01-09T04:25:21;75712.44;;;-147.06;100.00
54453;BME280;40363;52.270;10.546;2023-01-09T04:27:48;75700.09;;;-147.06;100.00
54453;BME280;40363;52.270;10.546;2023-01-09T04:30:14;75710.38;;;-147.06;100.00
54453;BME280;40363;52.270;10.546;2023-01-09T04:32:41;75704.22;;;-147.06;100.00
54453;BME280;40363;52.270;10.546;2023-01-09T04:35:08;75691.88;;;-147.06;100.00
54453;BME280;40363;52.270;10.546;2023-01-09T04:37:36;75702.16;;;-147.06;100.00
54453;BME280;40363;52.270;10.546;2023-01-09T04:40:04;75704.22;;;-147.06;100.00
54453;BME280;40363;52.270;10.546;2023-01-09T04:42:34;75696.00;;;-147.06;100.00
54453;BME280;40363;52.270;10.546;2023-01-09T04:45:00;75691.88;;;-147.06;100.00
54453;BME280;40363;52.270;10.546;2023-01-09T04:47:27;75685.72;;;-147.06;100.00
54453;BME280;40363;52.270;10.546;2023-01-09T04:49:55;75683.66;;;-147.06;100.00
54453;BME280;40363;52.270;10.546;2023-01-09T04:52:21;75683.66;;;-147.06;100.00
54453;BME280;40363;52.270;10.546;2023-01-09T04:54:48;75687.78;;;-147.06;100.00
54453;BME280;40363;52.270;10.546;2023-01-09T04:57:15;75677.50;;;-147.06;100.00
54453;BME280;40363;52.270;10.546;2023-01-09T04:59:43;75679.56;;;-147.06;100.00
54453;BME280;40363;52.270;10.546;2023-01-09T05:02:10;75675.44;;;-147.06;100.00
54453;BME280;40363;52.270;10.546;2023-01-09T05:04:36;75665.16;;;-147.06;100.00
54453;BME280;40363;52.270;10.546;2023-01-09T05:07:03;75675.44;;;-147.06;100.00
54453;BME280;40363;52.270;10.546;2023-01-09T05:09:30;75681.63;;;-147.06;100.00
54453;BME280;40363;52.270;10.546;2023-01-09T05:11:56;75677.50;;;-147.06;100.00
54453;BME280;40363;52.270;10.546;2023-01-09T05:14:23;75683.66;;;-147.06;100.00
54453;BME280;40363;52.270;10.546;2023-01-09T05:16:51;75696.00;;;-147.06;100.00
54453;BME280;40363;52.270;10.546;2023-01-09T05:19:18;75675.44;;;-147.06;100.00
54453;BME280;40363;52.270;10.546;2023-01-09T05:21:45;75679.56;;;-147.06;100.00
54453;BME280;40363;52.270;10.546;2023-01-09T05:24:12;75677.50;;;-147.06;100.00
54453;BME280;40363;52.270;10.546;2023-01-09T05:26:39;75652.84;;;-147.06;100.00
54453;BME280;40363;52.270;10.546;2023-01-09T05:29:05;75654.91;;;-147.06;100.00
54453;BME280;40363;52.270;10.546;2023-01-09T05:31:32;75659.00;;;-147.06;100.00
54453;BME280;40363;52.270;10.546;2023-01-09T05:34:00;75663.13;;;-147.06;100.00
54453;BME280;40363;52.270;10.546;2023-01-09T05:36:27;75654.91;;;-147.06;100.00
54453;BME280;40363;52.270;10.546;2023-01-09T05:38:54;75661.06;;;-147.06;100.00
54453;BME280;40363;52.270;10.546;2023-01-09T05:41:22;75675.44;;;-147.06;100.00
54453;BME280;40363;52.270;10.546;2023-01-09T05:43:49;75671.34;;;-147.06;100.00
54453;BME280;40363;52.270;10.546;2023-01-09T05:46:16;75656.94;;;-147.06;100.00
54453;BME280;40363;52.270;10.546;2023-01-09T05:48:43;75671.34;;;-147.06;100.00
54453;BME280;40363;52.270;10.546;2023-01-09T05:51:11;75671.34;;;-147.06;100.00
54453;BME280;40363;52.270;10.546;2023-01-09T05:53:38;75675.44;;;-147.06;100.00
54453;BME280;40363;52.270;10.546;2023-01-09T05:56:05;75677.50;;;-147.06;100.00
54453;BME280;40363;52.270;10.546;2023-01-09T05:58:32;75691.88;;;-147.06;100.00
54453;BME280;40363;52.270;10.546;2023-01-09T06:00:58;75683.66;;;-147.06;100.00
54453;BME280;40363;52.270;10.546;2023-01-09T06:03:25;75687.78;;;-147.06;100.00
54453;BME280;40363;52.270;10.546;2023-01-09T06:05:52;75679.56;;;-147.06;100.00
54453;BME280;40363;52.270;10.546;2023-01-09T06:08:20;75671.34;;;-147.06;100.00
54453;BME280;40363;52.270;10.546;2023-01-09T06:10:46;75673.41;;;-147.06;100.00
54453;BME280;40363;52.270;10.546;2023-01-09T06:13:13;75675.44;;;-147.06;100.00
54453;BME280;40363;52.270;10.546;2023-01-09T06:15:40;75671.34;;;-147.06;100.00
54453;BME280;40363;52.270;10.546;2023-01-09T06:18:07;75679.56;;;-147.06;100.00
54453;BME280;40363;52.270;10.546;2023-01-09T06:20:34;75675.44;;;-147.06;100.00
54453;BME280;40363;52.270;10.546;2023-01-09T06:23:00;75679.56;;;-147.06;100.00
54453;BME280;40363;52.270;10.546;2023-01-09T06:25:28;75675.44;;;-147.06;100.00
54453;BME280;40363;52.270;10.546;2023-01-09T06:27:55;75677.50;;;-147.06;100.00
54453;BME280;40363;52.270;10.546;2023-01-09T06:30:22;75679.56;;;-147.06;100.00
54453;BME280;40363;52.270;10.546;2023-01-09T06:32:49;75677.50;;;-147.06;100.00
54453;BME280;40363;52.270;10.546;2023-01-09T06:35:16;75679.56;;;-147.06;100.00
54453;BME280;40363;52.270;10.546;2023-01-09T06:37:45;75683.66;;;-147.06;100.00
54453;BME280;40363;52.270;10.546;2023-01-09T06:40:12;75679.56;;;-147.06;100.00
54453;BME280;40363;52.270;10.546;2023-01-09T06:42:43;75663.13;;;-147.06;100.00
54453;BME280;40363;52.270;10.546;2023-01-09T06:45:10;75681.63;;;-147.06;100.00
54453;BME280;40363;52.270;10.546;2023-01-09T06:47:37;75681.63;;;-147.06;100.00
54453;BME280;40363;52.270;10.546;2023-01-09T06:50:05;75673.41;;;-147.06;100.00
54453;BME280;40363;52.270;10.546;2023-01-09T06:52:32;75677.50;;;-147.06;100.00
54453;BME280;40363;52.270;10.546;2023-01-09T06:54:58;75679.56;;;-147.06;100.00
54453;BME280;40363;52.270;10.546;2023-01-09T06:57:25;75683.66;;;-147.06;100.00
54453;BME280;40363;52.270;10.546;2023-01-09T06:59:53;75675.44;;;-147.06;100.00
54453;BME280;40363;52.270;10.546;2023-01-09T07:02:21;75677.50;;;-147.06;100.00
54453;BME280;40363;52.270;10.546;2023-01-09T07:04:48;75665.16;;;-147.06;100.00
54453;BME280;40363;52.270;10.546;2023-01-09T07:07:14;75683.66;;;-147.06;100.00
54453;BME280;40363;52.270;10.546;2023-01-09T07:09:42;75683.66;;;-147.06;100.00
54453;BME280;40363;52.270;10.546;2023-01-09T07:12:09;75681.63;;;-147.06;100.00
54453;BME280;40363;52.270;10.546;2023-01-09T07:14:37;75681.63;;;-147.06;100.00
54453;BME280;40363;52.270;10.546;2023-01-09T07:17:05;75698.06;;;-147.06;100.00
54453;BME280;40363;52.270;10.546;2023-01-09T07:19:32;75691.88;;;-147.06;100.00
54453;BME280;40363;52.270;10.546;2023-01-09T07:21:58;75691.88;;;-147.06;100.00
54453;BME280;40363;52.270;10.546;2023-01-09T07:24:25;75696.00;;;-147.06;99.67
54453;BME280;40363;52.270;10.546;2023-01-09T07:26:52;75702.16;;;-147.06;99.34
54453;BME280;40363;52.270;10.546;2023-01-09T07:29:18;75696.00;;;-147.06;98.80
54453;BME280;40363;52.270;10.546;2023-01-09T07:31:45;75693.94;;;-147.06;98.25
54453;BME280;40363;52.270;10.546;2023-01-09T07:34:13;75700.09;;;-147.06;97.48
54453;BME280;40363;52.270;10.546;2023-01-09T07:36:40;75716.53;;;-147.06;96.47
54453;BME280;40363;52.270;10.546;2023-01-09T07:39:10;75718.59;;;-147.06;96.09
54453;BME280;40363;52.270;10.546;2023-01-09T07:41:37;75741.22;;;-147.06;95.31
54453;BME280;40363;52.270;10.546;2023-01-09T07:44:04;75737.09;;;-147.06;95.84
54453;BME280;40363;52.270;10.546;2023-01-09T07:46:31;75739.16;;;-147.06;95.79
54453;BME280;40363;52.270;10.546;2023-01-09T07:48:58;75749.44;;;-147.06;96.37
54453;BME280;40363;52.270;10.546;2023-01-09T07:51:26;75759.69;;;-147.06;96.30
54453;BME280;40363;52.270;10.546;2023-01-09T07:53:53;75774.09;;;-147.06;96.21
54453;BME280;40363;52.270;10.546;2023-01-09T07:56:19;75778.19;;;-147.06;96.26
54453;BME280;40363;52.270;10.546;2023-01-09T07:58:46;75784.38;;;-147.06;96.12
54453;BME280;40363;52.270;10.546;2023-01-09T08:01:13;75790.53;;;-147.06;95.44
54453;BME280;40363;52.270;10.546;2023-01-09T08:03:40;75796.69;;;-147.06;95.25
54453;BME280;40363;52.270;10.546;2023-01-09T08:06:07;75796.69;;;-147.06;94.67
54453;BME280;40363;52.270;10.546;2023-01-09T08:08:35;75806.97;;;-147.06;94.03
54453;BME280;40363;52.270;10.546;2023-01-09T08:11:02;75796.69;;;-147.06;93.56
54453;BME280;40363;52.270;10.546;2023-01-09T08:13:29;75811.06;;;-147.06;93.58
54453;BME280;40363;52.270;10.546;2023-01-09T08:15:55;75774.09;;;-147.06;94.55
54453;BME280;40363;52.270;10.546;2023-01-09T08:18:22;75753.53;;;-147.06;92.15
54453;BME280;40363;52.270;10.546;2023-01-09T08:20:49;75724.75;;;-147.06;89.96
54453;BME280;40363;52.270;10.546;2023-01-09T08:23:16;75702.16;;;-147.06;88.80
54453;BME280;40363;52.270;10.546;2023-01-09T08:25:44;75700.09;;;-147.06;87.34
54453;BME280;40363;52.270;10.546;2023-01-09T08:28:11;75710.38;;;-147.06;86.63
54453;BME280;40363;52.270;10.546;2023-01-09T08:30:38;75755.59;;;-147.06;86.40
54453;BME280;40363;52.270;10.546;2023-01-09T08:33:05;75769.97;;;-147.06;86.93
54453;BME280;40363;52.270;10.546;2023-01-09T08:35:32;75782.31;;;-147.06;86.78
54453;BME280;40363;52.270;10.546;2023-01-09T08:37:58;75776.13;;;-147.06;86.15
54453;BME280;40363;52.270;10.546;2023-01-09T08:40:24;75780.25;;;-147.06;85.91
54453;BME280;40363;52.270;10.546;2023-01-09T08:42:52;75780.25;;;-147.06;86.11
54453;BME280;40363;52.270;10.546;2023-01-09T08:45:36;75782.31;;;-147.06;85.97
54453;BME280;40363;52.270;10.546;2023-01-09T08:48:20;75772.03;;;-147.06;85.54
54453;BME280;40363;52.270;10.546;2023-01-09T08:50:46;75753.53;;;-147.06;84.87
54453;BME280;40363;52.270;10.546;2023-01-09T08:53:13;75716.53;;;-147.06;83.51
54453;BME280;40363;52.270;10.546;2023-01-09T08:55:40;75669.28;;;-147.06;81.91
54453;BME280;40363;52.270;10.546;2023-01-09T08:58:08;75613.81;;;-147.06;80.15
54453;BME280;40363;52.270;10.546;2023-01-09T09:00:35;75580.91;;;-147.06;77.57
54453;BME280;40363;52.270;10.546;2023-01-09T09:03:02;75550.09;;;-147.06;77.00
54453;BME280;40363;52.270;10.546;2023-01-09T09:05:30;75552.16;;;-147.06;76.47
54453;BME280;40363;52.270;10.546;2023-01-09T09:07:57;75531.59;;;-147.06;76.11
54453;BME280;40363;52.270;10.546;2023-01-09T09:10:26;75543.94;;;-147.06;75.44
54453;BME280;40363;52.270;10.546;2023-01-09T09:12:54;75539.81;;;-147.06;75.23
54453;BME280;40363;52.270;10.546;2023-01-09T09:15:24;75511.06;;;-147.06;74.43
54453;BME280;40363;52.270;10.546;2023-01-09T09:17:52;75539.81;;;-147.06;74.93
54453;BME280;40363;52.270;10.546;2023-01-09T09:20:20;75546.00;;;-147.06;75.39
54453;BME280;40363;52.270;10.546;2023-01-09T09:22:46;75580.91;;;-147.06;76.21
54453;BME280;40363;52.270;10.546;2023-01-09T09:25:14;75576.81;;;-147.06;76.98
54453;BME280;40363;52.270;10.546;2023-01-09T09:27:41;75531.59;;;-147.06;75.00
54453;BME280;40363;52.270;10.546;2023-01-09T09:30:09;75535.72;;;-147.06;75.22
54453;BME280;40363;52.270;10.546;2023-01-09T09:32:37;75529.53;;;-147.06;74.84
54453;BME280;40363;52.270;10.546;2023-01-09T09:35:05;75521.31;;;-147.06;74.01
54453;BME280;40363;52.270;10.546;2023-01-09T09:37:32;75548.03;;;-147.06;74.33
54453;BME280;40363;52.270;10.546;2023-01-09T09:39:59;75539.81;;;-147.06;74.16
54453;BME280;40363;52.270;10.546;2023-01-09T09:42:39;75550.09;;;-147.06;74.55
54453;BME280;40363;52.270;10.546;2023-01-09T09:45:36;75548.03;;;-147.06;74.45
54453;BME280;40363;52.270;10.546;2023-01-09T09:48:18;75539.81;;;-147.06;74.22
54453;BME280;40363;52.270;10.546;2023-01-09T09:51:18;75550.09;;;-147.06;74.52
54453;BME280;40363;52.270;10.546;2023-01-09T09:53:50;75624.06;;;-147.06;76.81
54453;BME280;40363;52.270;10.546;2023-01-09T09:56:21;75669.28;;;-147.06;78.58
54453;BME280;40363;52.270;10.546;2023-01-09T09:58:51;75683.66;;;-147.06;78.69
54453;BME280;40363;52.270;10.546;2023-01-09T10:01:22;75681.63;;;-147.06;78.03
54453;BME280;40363;52.270;10.546;2023-01-09T10:03:54;75659.00;;;-147.06;77.56
54453;BME280;40363;52.270;10.546;2023-01-09T10:06:27;75661.06;;;-147.06;76.55
54453;BME280;40363;52.270;10.546;2023-01-09T10:08:58;75691.88;;;-147.06;77.51
54453;BME280;40363;52.270;10.546;2023-01-09T10:11:32;75679.56;;;-147.06;77.60
54453;BME280;40363;52.270;10.546;2023-01-09T10:14:00;75696.00;;;-147.06;78.03
54453;BME280;40363;52.270;10.546;2023-01-09T10:16:38;75706.28;;;-147.06;78.42
54453;BME280;40363;52.270;10.546;2023-01-09T10:19:21;75693.94;;;-147.06;77.16
54453;BME280;40363;52.270;10.546;2023-01-09T10:21:58;75687.78;;;-147.06;78.21
54453;BME280;40363;52.270;10.546;2023-01-09T10:24:36;75656.94;;;-147.06;77.42
54453;BME280;40363;52.270;10.546;2023-01-09T10:27:15;75650.78;;;-147.06;77.14
54453;BME280;40363;52.270;10.546;2023-01-09T10:29:54;75652.84;;;-147.06;77.27
54453;BME280;40363;52.270;10.546;2023-01-09T10:32:40;75626.13;;;-147.06;76.14
54453;BME280;40363;52.270;10.546;2023-01-09T10:38:06;75640.50;;;-147.06;76.85
54453;BME280;40363;52.270;10.546;2023-01-09T10:40:35;75650.78;;;-147.06;75.75
54453;BME280;40363;52.270;10.546;2023-01-09T10:43:09;75656.94;;;-147.06;76.78
54453;BME280;40363;52.270;10.546;2023-01-09T10:45:40;75656.94;;;-147.06;76.25
54453;BME280;40363;52.270;10.546;2023-01-09T10:48:16;75669.28;;;-147.06;75.84
54453;BME280;40363;52.270;10.546;2023-01-09T10:50:47;75654.91;;;-147.06;75.77
54453;BME280;40363;52.270;10.546;2023-01-09T10:53:18;75652.84;;;-147.06;75.66
54453;BME280;40363;52.270;10.546;2023-01-09T10:55:46;75667.22;;;-147.06;75.59
54453;BME280;40363;52.270;10.546;2023-01-09T10:58:16;75642.56;;;-147.06;75.40
54453;BME280;40363;52.270;10.546;2023-01-09T11:00:44;75642.56;;;-147.06;75.77
54453;BME280;40363;52.270;10.546;2023-01-09T11:03:12;75640.50;;;-147.06;76.39
54453;BME280;40363;52.270;10.546;2023-01-09T11:05:40;75619.97;;;-147.06;75.75
54453;BME280;40363;52.270;10.546;2023-01-09T11:08:16;75632.28;;;-147.06;75.55
54453;BME280;40363;52.270;10.546;2023-01-09T11:10:48;75642.56;;;-147.06;75.86
54453;BME280;40363;52.270;10.546;2023-01-09T11:13:19;75638.47;;;-147.06;75.14
54453;BME280;40363;52.270;10.546;2023-01-09T11:15:58;75630.25;;;-147.06;75.17
54453;BME280;40363;52.270;10.546;2023-01-09T11:18:26;75636.41;;;-147.06;74.29
54453;BME280;40363;52.270;10.546;2023-01-09T11:20:52;75646.69;;;-147.06;74.75
54453;BME280;40363;52.270;10.546;2023-01-09T11:23:31;75654.91;;;-147.06;75.01
54453;BME280;40363;52.270;10.546;2023-01-09T11:26:00;75656.94;;;-147.06;74.77
54453;BME280;40363;52.270;10.546;2023-01-09T11:28:27;75659.00;;;-147.06;74.71
54453;BME280;40363;52.270;10.546;2023-01-09T11:30:56;75659.00;;;-147.06;74.89
54453;BME280;40363;52.270;10.546;2023-01-09T11:33:27;75671.34;;;-147.06;75.04
54453;BME280;40363;52.270;10.546;2023-01-09T11:35:57;75685.72;;;-147.06;75.37
54453;BME280;40363;52.270;10.546;2023-01-09T11:38:25;75679.56;;;-147.06;75.07
54453;BME280;40363;52.270;10.546;2023-01-09T11:40:56;75687.78;;;-147.06;75.47
54453;BME280;40363;52.270;10.546;2023-01-09T11:43:28;75687.78;;;-147.06;75.63
54453;BME280;40363;52.270;10.546;2023-01-09T11:45:58;75675.44;;;-147.06;75.65
54453;BME280;40363;52.270;10.546;2023-01-09T11:48:32;75671.34;;;-147.06;75.18
54453;BME280;40363;52.270;10.546;2023-01-09T11:51:02;75659.00;;;-147.06;75.42
54453;BME280;40363;52.270;10.546;2023-01-09T11:53:42;75646.69;;;-147.06;74.48
54453;BME280;40363;52.270;10.546;2023-01-09T11:56:12;75650.78;;;-147.06;74.82
54453;BME280;40363;52.270;10.546;2023-01-09T11:58:40;75656.94;;;-147.06;74.52
54453;BME280;40363;52.270;10.546;2023-01-09T12:01:24;75646.69;;;-147.06;74.29
54453;BME280;40363;52.270;10.546;2023-01-09T12:04:09;75648.72;;;-147.06;74.09
54453;BME280;40363;52.270;10.546;2023-01-09T12:06:48;75654.91;;;-147.06;75.10
54453;BME280;40363;52.270;10.546;2023-01-09T12:09:23;75650.78;;;-147.06;74.32
54453;BME280;40363;52.270;10.546;2023-01-09T12:11:55;75650.78;;;-147.06;74.28
54453;BME280;40363;52.270;10.546;2023-01-09T12:14:36;75646.69;;;-147.06;73.84
54453;BME280;40363;52.270;10.546;2023-01-09T12:20:19;75656.94;;;-147.06;73.37
54453;BME280;40363;52.270;10.546;2023-01-09T12:22:54;75650.78;;;-147.06;73.27
54453;BME280;40363;52.270;10.546;2023-01-09T12:25:35;75650.78;;;-147.06;73.64
54453;BME280;40363;52.270;10.546;2023-01-09T12:28:42;75646.69;;;-147.06;73.73
54453;BME280;40363;52.270;10.546;2023-01-09T12:31:20;75644.63;;;-147.06;73.18
54453;BME280;40363;52.270;10.546;2023-01-09T12:33:56;75648.72;;;-147.06;73.22
54453;BME280;40363;52.270;10.546;2023-01-09T12:36:34;75642.56;;;-147.06;72.66
54453;BME280;40363;52.270;10.546;2023-01-09T12:39:10;75626.13;;;-147.06;72.52
54453;BME280;40363;52.270;10.546;2023-01-09T12:42:07;75603.53;;;-147.06;72.00
54453;BME280;40363;52.270;10.546;2023-01-09T12:44:47;75605.56;;;-147.06;71.88
54453;BME280;40363;52.270;10.546;2023-01-09T12:47:41;75597.34;;;-147.06;71.11
54453;BME280;40363;52.270;10.546;2023-01-09T12:50:38;75597.34;;;-147.06;71.25
54453;BME280;40363;52.270;10.546;2023-01-09T12:53:17;75595.31;;;-147.06;71.32